createdAt,value
2018-12-22T00:02:54.703Z,76.66
2018-12-22T00:05:22.930Z,78.10
2018-12-22T00:07:51.327Z,79.09
2018-12-22T00:10:19.607Z,78.57
2018-12-22T00:12:47.988Z,78.78
2018-12-22T00:15:16.212Z,78.46
2018-12-22T00:17:44.443Z,78.07
2018-12-22T00:20:12.943Z,77.51
2018-12-22T00:22:41.238Z,77.26
2018-12-22T00:25:09.567Z,76.75
2018-12-22T00:27:38.834Z,76.84
2018-12-22T00:30:08.271Z,76.56
2018-12-22T00:32:36.532Z,76.73
2018-12-22T00:35:06.135Z,76.65
2018-12-22T00:37:34.450Z,77.64
2018-12-22T00:40:02.753Z,78.06
2018-12-22T00:42:31.255Z,78.81
2018-12-22T00:44:59.552Z,79.70
2018-12-22T00:47:27.791Z,80.26
2018-12-22T00:49:56.078Z,80.42
2018-12-22T00:52:24.463Z,81.47
2018-12-22T00:54:52.899Z,81.78
2018-12-22T00:57:21.183Z,83.43
2018-12-22T00:59:49.431Z,84.42
2018-12-22T01:02:17.774Z,84.90
2018-12-22T01:04:46.105Z,84.99
2018-12-22T01:07:14.458Z,84.43
2018-12-22T01:09:42.711Z,85.42
2018-12-22T01:12:10.971Z,85.63
2018-12-22T01:14:39.398Z,85.66
2018-12-22T01:17:07.771Z,86.21
2018-12-22T01:19:36.429Z,85.78
2018-12-22T01:22:04.955Z,85.32
2018-12-22T01:24:33.194Z,85.48
2018-12-22T01:27:01.504Z,85.81
2018-12-22T01:29:29.763Z,85.73
2018-12-22T01:31:58.143Z,85.99
2018-12-22T01:34:26.466Z,85.44
2018-12-22T01:36:54.911Z,86.19
2018-12-22T01:39:23.186Z,85.73
2018-12-22T01:41:51.567Z,86.75
2018-12-22T01:44:19.788Z,86.86
2018-12-22T01:46:48.200Z,86.25
2018-12-22T01:49:16.604Z,86.01
2018-12-22T01:51:45.070Z,85.29
2018-12-22T01:54:13.515Z,84.85
2018-12-22T01:56:41.779Z,84.68
2018-12-22T01:59:10.038Z,84.66
2018-12-22T02:01:38.620Z,84.35
2018-12-22T02:04:06.863Z,84.50
2018-12-22T02:06:35.094Z,83.92
2018-12-22T02:09:04.687Z,83.44
2018-12-22T02:11:33.120Z,83.60
2018-12-22T02:14:01.346Z,83.56
2018-12-22T02:16:29.583Z,83.69
2018-12-22T02:18:57.951Z,84.00
2018-12-22T02:21:26.183Z,85.49
2018-12-22T02:23:54.504Z,85.57
2018-12-22T02:26:22.780Z,86.16
2018-12-22T02:28:56.485Z,86.29
2018-12-22T02:31:21.292Z,85.82
2018-12-22T02:33:49.646Z,84.98
2018-12-22T02:36:17.867Z,85.99
2018-12-22T02:38:46.098Z,85.93
2018-12-22T02:41:14.673Z,85.90
2018-12-22T02:43:42.982Z,85.29
2018-12-22T02:46:11.426Z,85.19
2018-12-22T02:48:39.856Z,85.06
2018-12-22T02:51:08.209Z,85.08
2018-12-22T02:53:36.682Z,84.34
2018-12-22T02:56:04.988Z,84.12
2018-12-22T02:58:33.199Z,83.90
2018-12-22T03:01:01.446Z,83.58
2018-12-22T03:03:29.671Z,84.17
2018-12-22T03:05:57.915Z,84.08
2018-12-22T03:08:26.152Z,83.28
2018-12-22T03:10:54.522Z,83.14
2018-12-22T03:13:22.786Z,83.84
2018-12-22T03:15:51.071Z,83.40
2018-12-22T03:18:19.448Z,83.37
2018-12-22T03:20:47.778Z,83.59
2018-12-22T03:23:16.057Z,84.53
2018-12-22T03:25:44.387Z,85.24
2018-12-22T03:28:12.693Z,85.64
2018-12-22T03:30:40.905Z,85.71
2018-12-22T03:33:09.242Z,85.48
2018-12-22T03:35:37.591Z,85.00
2018-12-22T03:38:05.895Z,85.47
2018-12-22T03:40:34.160Z,84.87
2018-12-22T03:43:02.424Z,84.26
2018-12-22T03:45:30.725Z,83.37
2018-12-22T03:47:58.967Z,83.42
2018-12-22T03:50:27.263Z,82.84
2018-12-22T03:52:55.619Z,82.23
2018-12-22T03:55:23.931Z,82.30
2018-12-22T03:57:52.224Z,82.55
2018-12-22T04:00:20.671Z,81.58
2018-12-22T04:02:49.785Z,81.36
2018-12-22T04:05:18.034Z,81.58
2018-12-22T04:07:46.420Z,79.78
2018-12-22T04:10:15.311Z,80.43
2018-12-22T04:12:43.559Z,80.51
2018-12-22T04:15:11.803Z,80.05
2018-12-22T04:17:40.017Z,79.90
2018-12-22T04:20:08.287Z,79.54
2018-12-22T04:22:36.519Z,79.55
2018-12-22T04:25:05.418Z,79.81
2018-12-22T04:27:33.711Z,78.90
2018-12-22T04:30:02.102Z,78.34
2018-12-22T04:32:30.788Z,77.73
2018-12-22T04:34:59.011Z,77.32
2018-12-22T04:37:27.246Z,76.90
2018-12-22T04:39:55.475Z,76.98
2018-12-22T04:42:23.798Z,76.18
2018-12-22T04:44:52.044Z,75.49
2018-12-22T04:47:24.363Z,75.15
2018-12-22T04:49:52.715Z,74.73
2018-12-22T04:52:20.960Z,74.55
2018-12-22T04:54:49.284Z,74.25
2018-12-22T04:57:17.672Z,73.15
2018-12-22T04:59:46.044Z,72.76
2018-12-22T05:02:14.416Z,72.74
2018-12-22T05:04:42.648Z,73.10
2018-12-22T05:07:11.039Z,72.44
2018-12-22T05:09:39.311Z,72.39
2018-12-22T05:12:07.820Z,72.70
2018-12-22T05:14:36.096Z,72.04
2018-12-22T05:17:04.359Z,71.97
2018-12-22T05:19:32.608Z,71.61
2018-12-22T05:22:01.069Z,71.65
2018-12-22T05:24:29.289Z,71.38
2018-12-22T05:26:57.693Z,70.92
2018-12-22T05:29:25.906Z,70.43
2018-12-22T05:31:54.280Z,70.09
2018-12-22T05:34:22.725Z,70.53
2018-12-22T05:36:51.099Z,70.87
2018-12-22T05:39:19.440Z,70.05
2018-12-22T05:41:47.862Z,70.11
2018-12-22T05:44:16.183Z,70.50
2018-12-22T05:46:44.645Z,70.42
2018-12-22T05:49:12.894Z,70.55
2018-12-22T05:51:41.373Z,69.83
2018-12-22T05:54:09.618Z,70.10
2018-12-22T05:56:37.842Z,70.04
2018-12-22T05:59:06.055Z,70.22
2018-12-22T06:01:34.479Z,70.56
2018-12-22T06:04:02.708Z,71.14
2018-12-22T06:06:30.947Z,70.80
2018-12-22T06:08:59.203Z,71.03
2018-12-22T06:11:27.789Z,71.43
2018-12-22T06:13:56.423Z,71.67
2018-12-22T06:16:24.679Z,71.57
2018-12-22T06:18:52.901Z,72.09
2018-12-22T06:21:21.149Z,71.96
2018-12-22T06:23:49.353Z,71.70
2018-12-22T06:26:17.566Z,71.76
2018-12-22T06:28:45.802Z,71.44
2018-12-22T06:31:14.099Z,71.10
2018-12-22T06:36:16.791Z,71.08
2018-12-22T06:38:45.176Z,70.43
2018-12-22T06:41:13.434Z,70.44
2018-12-22T06:43:41.808Z,69.96
2018-12-22T06:46:10.099Z,70.72
2018-12-22T06:48:38.376Z,68.84
2018-12-22T06:51:06.650Z,68.48
2018-12-22T06:53:34.896Z,68.19
2018-12-22T06:56:03.111Z,68.18
2018-12-22T06:58:31.379Z,68.34
2018-12-22T07:00:59.630Z,68.36
2018-12-22T07:03:27.840Z,68.66
2018-12-22T07:05:56.100Z,68.14
2018-12-22T07:08:24.444Z,67.92
2018-12-22T07:10:52.660Z,68.35
2018-12-22T07:13:21.139Z,68.50
2018-12-22T07:15:49.415Z,67.53
2018-12-22T07:18:17.652Z,67.41
2018-12-22T07:20:45.902Z,67.76
2018-12-22T07:23:14.138Z,66.93
2018-12-22T07:25:42.420Z,66.32
2018-12-22T07:28:10.800Z,66.40
2018-12-22T07:30:39.019Z,66.29
2018-12-22T07:33:07.248Z,66.13
2018-12-22T07:35:35.469Z,66.27
2018-12-22T07:38:03.739Z,66.50
2018-12-22T07:40:32.080Z,66.15
2018-12-22T07:43:00.334Z,65.59
2018-12-22T07:45:28.584Z,65.34
2018-12-22T07:47:56.823Z,65.56
2018-12-22T07:50:25.108Z,65.13
2018-12-22T07:52:53.557Z,64.29
2018-12-22T07:55:21.839Z,64.40
2018-12-22T07:57:50.127Z,64.03
2018-12-22T08:00:18.367Z,64.44
2018-12-22T08:02:46.647Z,63.86
2018-12-22T08:05:14.952Z,63.85
2018-12-22T08:07:43.260Z,63.60
2018-12-22T08:10:11.503Z,64.53
2018-12-22T08:12:39.812Z,64.43
2018-12-22T08:15:08.048Z,64.65
2018-12-22T08:17:36.334Z,64.96
2018-12-22T08:20:06.600Z,65.17
2018-12-22T08:22:34.825Z,65.38
2018-12-22T08:25:04.497Z,65.20
2018-12-22T08:27:32.719Z,65.82
2018-12-22T08:30:01.226Z,65.36
2018-12-22T08:32:29.519Z,65.59
2018-12-22T08:34:57.788Z,65.04
2018-12-22T08:37:26.020Z,65.67
2018-12-22T08:39:54.335Z,65.99
2018-12-22T08:42:22.595Z,66.21
2018-12-22T08:44:50.927Z,66.10
2018-12-22T08:47:19.162Z,66.53
2018-12-22T08:49:47.509Z,67.14
2018-12-22T08:52:15.755Z,67.22
2018-12-22T08:54:44.306Z,67.88
2018-12-22T08:57:12.630Z,68.22
2018-12-22T08:59:40.907Z,67.69
2018-12-22T09:02:09.189Z,68.28
2018-12-22T09:04:37.471Z,67.76
2018-12-22T09:07:05.718Z,67.99
2018-12-22T09:09:33.963Z,67.69
2018-12-22T09:12:02.185Z,67.87
2018-12-22T09:14:30.419Z,68.11
2018-12-22T09:16:58.636Z,68.04
2018-12-22T09:19:26.874Z,68.58
2018-12-22T09:21:55.134Z,68.60
2018-12-22T09:24:23.360Z,68.83
2018-12-22T09:26:51.642Z,69.03
2018-12-22T09:29:19.960Z,69.20
2018-12-22T09:31:48.311Z,69.10
2018-12-22T09:34:16.571Z,69.25
2018-12-22T09:36:44.818Z,69.00
2018-12-22T09:39:13.093Z,69.20
2018-12-22T09:41:41.395Z,68.25
2018-12-22T09:44:09.711Z,68.61
2018-12-22T09:46:38.014Z,68.16
2018-12-22T09:49:06.331Z,67.07
2018-12-22T09:51:34.549Z,66.82
2018-12-22T09:54:02.776Z,67.17
2018-12-22T09:56:31.052Z,66.75
2018-12-22T09:58:59.355Z,66.39
2018-12-22T10:01:27.592Z,64.58
2018-12-22T10:03:55.860Z,64.35
2018-12-22T10:06:24.089Z,63.59
2018-12-22T10:08:52.507Z,63.02
2018-12-22T10:11:20.735Z,62.32
2018-12-22T10:13:48.987Z,62.13
2018-12-22T10:16:17.217Z,61.24
2018-12-22T10:18:45.488Z,60.98
2018-12-22T10:21:13.758Z,60.73
2018-12-22T10:23:42.062Z,59.98
2018-12-22T10:26:10.367Z,60.15
2018-12-22T10:28:38.595Z,60.48
2018-12-22T10:31:06.891Z,59.87
2018-12-22T10:33:35.119Z,59.70
2018-12-22T10:36:04.032Z,59.81
2018-12-22T10:38:32.362Z,60.30
2018-12-22T10:41:00.656Z,60.57
2018-12-22T10:43:28.911Z,61.55
2018-12-22T10:45:57.163Z,61.61
2018-12-22T10:48:25.433Z,61.82
2018-12-22T10:50:54.258Z,62.29
2018-12-22T10:53:22.515Z,63.35
2018-12-22T10:55:50.870Z,63.16
2018-12-22T10:58:19.192Z,63.53
2018-12-22T11:00:47.577Z,63.83
2018-12-22T11:03:15.839Z,64.42
2018-12-22T11:05:44.055Z,64.39
2018-12-22T11:08:12.283Z,65.02
2018-12-22T11:10:40.558Z,64.53
2018-12-22T11:13:08.806Z,65.36
2018-12-22T11:15:37.043Z,65.18
2018-12-22T11:18:05.300Z,65.44
2018-12-22T11:20:33.715Z,64.88
2018-12-22T11:23:01.999Z,64.36
2018-12-22T11:25:30.215Z,64.25
2018-12-22T11:27:58.512Z,64.31
2018-12-22T11:30:26.744Z,63.88
2018-12-22T11:32:54.992Z,63.81
2018-12-22T11:35:23.282Z,63.74
2018-12-22T11:37:51.536Z,63.56
2018-12-22T11:40:19.791Z,63.76
2018-12-22T11:42:48.057Z,62.79
2018-12-22T11:45:16.336Z,63.20
2018-12-22T11:47:48.261Z,63.59
2018-12-22T11:50:23.815Z,63.54
2018-12-22T11:52:52.338Z,63.58
2018-12-22T11:55:20.599Z,63.79
2018-12-22T11:57:48.901Z,64.00
2018-12-22T12:00:17.240Z,63.81
2018-12-22T12:02:45.462Z,63.36
2018-12-22T12:05:13.886Z,62.67
2018-12-22T12:07:42.379Z,62.58
2018-12-22T12:10:10.767Z,62.72
2018-12-22T12:12:39.050Z,62.80
2018-12-22T12:15:14.610Z,62.64
2018-12-22T12:20:45.456Z,62.51
2018-12-22T12:23:13.737Z,62.26
2018-12-22T12:25:42.025Z,62.48
2018-12-22T12:28:10.278Z,62.78
2018-12-22T12:30:38.565Z,62.76
2018-12-22T12:33:06.827Z,62.83
2018-12-22T12:35:35.119Z,63.22
2018-12-22T12:38:03.366Z,63.28
2018-12-22T12:40:31.696Z,62.92
2018-12-22T12:42:59.971Z,62.90
2018-12-22T12:45:28.219Z,62.61
2018-12-22T12:47:56.483Z,62.92
2018-12-22T12:50:25.144Z,63.61
2018-12-22T12:52:53.467Z,63.47
2018-12-22T12:55:21.751Z,63.61
2018-12-22T12:57:49.981Z,63.91
2018-12-22T13:00:20.838Z,64.05
2018-12-22T13:02:49.114Z,64.08
2018-12-22T13:05:17.379Z,64.34
2018-12-22T13:07:45.599Z,64.37
2018-12-22T13:10:13.867Z,64.26
2018-12-22T13:13:04.676Z,64.11
2018-12-22T13:15:33.010Z,64.59
2018-12-22T13:18:01.394Z,64.23
2018-12-22T13:20:29.747Z,64.59
2018-12-22T13:22:58.043Z,63.98
2018-12-22T13:25:26.298Z,64.41
2018-12-22T13:27:54.529Z,64.02
2018-12-22T13:30:22.779Z,64.41
2018-12-22T13:32:51.031Z,64.53
2018-12-22T13:35:19.369Z,64.15
2018-12-22T13:37:47.635Z,64.03
2018-12-22T13:40:16.013Z,64.40
2018-12-22T13:42:44.258Z,64.18
2018-12-22T13:45:12.590Z,63.97
2018-12-22T13:47:41.106Z,64.17
2018-12-22T13:50:13.900Z,63.95
2018-12-22T13:52:42.175Z,64.12
2018-12-22T13:55:10.937Z,63.81
2018-12-22T13:57:43.741Z,63.73
2018-12-22T14:00:23.029Z,63.64
2018-12-22T14:02:51.315Z,63.66
2018-12-22T14:05:28.360Z,63.98
2018-12-22T14:07:56.658Z,64.67
2018-12-22T14:10:24.886Z,64.03
2018-12-22T14:12:53.380Z,64.23
2018-12-22T14:15:25.231Z,64.40
2018-12-22T14:18:08.688Z,64.21
2018-12-22T14:20:36.938Z,64.68
2018-12-22T14:23:05.190Z,64.67
2018-12-22T14:25:33.434Z,64.75
2018-12-22T14:28:01.652Z,64.71
2018-12-22T14:30:29.961Z,64.41
2018-12-22T14:32:58.272Z,65.37
2018-12-22T14:35:31.991Z,65.17
2018-12-22T14:38:00.227Z,65.35
2018-12-22T14:40:28.676Z,65.69
2018-12-22T14:42:57.076Z,66.20
2018-12-22T14:45:25.474Z,66.29
2018-12-22T14:47:53.728Z,66.19
2018-12-22T14:50:21.988Z,66.87
2018-12-22T14:52:50.268Z,68.23
2018-12-22T14:55:18.576Z,69.11
2018-12-22T14:57:56.763Z,68.40
2018-12-22T15:00:25.019Z,69.74
2018-12-22T15:02:53.329Z,69.84
2018-12-22T15:05:21.699Z,70.11
2018-12-22T15:07:49.975Z,69.99
2018-12-22T15:10:18.239Z,68.99
2018-12-22T15:12:46.567Z,68.58
2018-12-22T15:15:14.901Z,68.91
2018-12-22T15:17:43.968Z,70.16
2018-12-22T15:20:34.084Z,70.67
2018-12-22T15:23:05.044Z,71.47
2018-12-22T15:25:33.311Z,71.52
2018-12-22T15:28:01.561Z,71.49
2018-12-22T15:30:29.863Z,72.45
2018-12-22T15:32:58.108Z,72.65
2018-12-22T15:35:26.388Z,72.52
2018-12-22T15:37:54.608Z,72.32
2018-12-22T15:40:23.066Z,72.97
2018-12-22T15:42:51.291Z,72.88
2018-12-22T15:45:19.697Z,73.39
2018-12-22T15:47:47.953Z,73.96
2018-12-22T15:50:31.363Z,73.81
2018-12-22T15:52:59.960Z,73.23
2018-12-22T15:55:28.261Z,73.12
2018-12-22T15:57:56.551Z,74.20
2018-12-22T16:00:24.924Z,73.86
2018-12-22T16:02:53.651Z,74.11
2018-12-22T16:05:22.069Z,73.70
2018-12-22T16:07:50.300Z,74.00
2018-12-22T16:10:18.635Z,74.35
2018-12-22T16:12:46.926Z,74.27
2018-12-22T16:15:22.361Z,74.03
2018-12-22T16:17:50.737Z,74.55
2018-12-22T16:20:19.020Z,73.99
2018-12-22T16:22:55.506Z,74.13
2018-12-22T16:25:23.776Z,74.70
2018-12-22T16:27:57.671Z,75.21
2018-12-22T16:30:37.223Z,75.97
2018-12-22T16:33:05.500Z,76.52
2018-12-22T16:35:33.845Z,75.95
2018-12-22T16:38:02.252Z,76.77
2018-12-22T16:40:30.628Z,77.59
2018-12-22T16:42:59.394Z,78.40
2018-12-22T16:45:27.782Z,79.79
2018-12-22T16:47:56.027Z,79.96
2018-12-22T16:50:24.779Z,80.89
2018-12-22T16:52:53.103Z,80.54
2018-12-22T16:55:21.401Z,81.26
2018-12-22T16:58:04.805Z,81.57
2018-12-22T17:00:41.703Z,82.73
2018-12-22T17:03:10.921Z,83.33
2018-12-22T17:05:39.595Z,81.93
2018-12-22T17:08:07.979Z,82.19
2018-12-22T17:10:36.351Z,82.43
2018-12-22T17:13:04.659Z,82.10
2018-12-22T17:15:32.981Z,81.88
2018-12-22T17:18:01.295Z,82.17
2018-12-22T17:20:30.259Z,81.36
2018-12-22T17:23:10.965Z,79.92
2018-12-22T17:25:40.974Z,79.78
2018-12-22T17:28:09.259Z,79.65
2018-12-22T17:30:37.739Z,80.40
2018-12-22T17:33:06.623Z,80.22
2018-12-22T17:35:35.724Z,80.00
2018-12-22T17:38:03.990Z,79.31
2018-12-22T17:40:32.194Z,79.09
2018-12-22T17:43:01.048Z,78.72
2018-12-22T17:45:29.253Z,79.11
2018-12-22T17:47:57.527Z,79.38
2018-12-22T17:50:25.767Z,79.74
2018-12-22T17:52:54.075Z,79.15
2018-12-22T17:55:22.428Z,78.87
2018-12-22T17:57:50.702Z,79.50
2018-12-22T18:00:20.354Z,79.98
2018-12-22T18:02:48.809Z,79.75
2018-12-22T18:05:17.059Z,79.76
2018-12-22T18:07:45.342Z,79.78
2018-12-22T18:10:13.591Z,80.08
2018-12-22T18:12:41.910Z,80.03
2018-12-22T18:15:23.759Z,79.85
2018-12-22T18:17:52.193Z,79.61
2018-12-22T18:20:20.444Z,80.16
2018-12-22T18:22:48.725Z,80.21
2018-12-22T18:25:21.371Z,78.31
2018-12-22T18:27:52.402Z,78.23
2018-12-22T18:30:20.744Z,77.59
2018-12-22T18:32:49.107Z,77.03
2018-12-22T18:35:17.315Z,77.31
2018-12-22T18:37:45.751Z,76.94
2018-12-22T18:40:19.329Z,76.69
2018-12-22T18:42:48.133Z,76.30
2018-12-22T18:45:16.473Z,77.08
2018-12-22T18:47:45.162Z,76.75
2018-12-22T18:50:21.525Z,76.83
2018-12-22T18:52:49.827Z,76.63
2018-12-22T18:55:18.145Z,77.38
2018-12-22T18:57:49.901Z,77.96
2018-12-22T19:00:22.599Z,79.18
2018-12-22T19:02:51.501Z,78.77
2018-12-22T19:05:20.674Z,79.56
2018-12-22T19:07:49.538Z,79.42
2018-12-22T19:10:25.820Z,79.82
2018-12-22T19:12:56.146Z,80.15
2018-12-22T19:15:24.355Z,80.21
2018-12-22T19:17:52.569Z,80.53
2018-12-22T19:20:27.427Z,80.60
2018-12-22T19:22:55.662Z,80.99
2018-12-22T19:25:24.677Z,80.83
2018-12-22T19:27:52.891Z,81.17
2018-12-22T19:30:21.103Z,81.05
2018-12-22T19:32:49.427Z,80.51
2018-12-22T19:35:17.691Z,80.44
2018-12-22T19:37:45.902Z,80.66
2018-12-22T19:40:14.183Z,79.25
2018-12-22T19:42:42.401Z,79.33
2018-12-22T19:45:10.871Z,78.46
2018-12-22T19:47:39.092Z,78.16
2018-12-22T19:50:07.863Z,78.18
2018-12-22T19:52:36.146Z,78.53
2018-12-22T19:55:06.536Z,78.60
2018-12-22T19:57:34.790Z,78.39
2018-12-22T20:00:03.109Z,78.23
2018-12-22T20:02:31.364Z,77.65
2018-12-22T20:04:59.764Z,77.11
2018-12-22T20:07:27.967Z,77.04
2018-12-22T20:09:56.323Z,77.48
2018-12-22T20:12:24.535Z,77.63
2018-12-22T20:14:52.774Z,77.53
2018-12-22T20:17:21.058Z,77.59
2018-12-22T20:19:49.261Z,78.26
2018-12-22T20:22:17.593Z,78.20
2018-12-22T20:24:45.822Z,78.56
2018-12-22T20:27:14.031Z,79.01
2018-12-22T20:29:42.241Z,78.69
2018-12-22T20:32:10.459Z,79.18
2018-12-22T20:34:38.778Z,79.00
2018-12-22T20:37:07.054Z,79.33
2018-12-22T20:39:35.338Z,79.27
2018-12-22T20:42:03.616Z,79.15
2018-12-22T20:44:31.881Z,78.46
2018-12-22T20:47:00.154Z,77.91
2018-12-22T20:49:28.447Z,77.51
2018-12-22T20:51:56.791Z,76.70
2018-12-22T20:54:25.006Z,76.27
2018-12-22T20:56:53.268Z,75.81
2018-12-22T20:59:21.479Z,76.12
2018-12-22T21:01:49.836Z,75.68
2018-12-22T21:04:19.919Z,75.63
2018-12-22T21:06:48.394Z,75.89
2018-12-22T21:09:16.696Z,75.63
2018-12-22T21:11:44.943Z,75.67
2018-12-22T21:14:13.160Z,76.42
2018-12-22T21:16:41.487Z,76.02
2018-12-22T21:19:09.703Z,76.08
2018-12-22T21:21:38.003Z,76.32
2018-12-22T21:24:06.239Z,76.44
2018-12-22T21:26:34.531Z,76.42
2018-12-22T21:29:03.014Z,76.93
2018-12-22T21:31:31.213Z,76.49
2018-12-22T21:33:59.441Z,76.12
2018-12-22T21:36:27.731Z,76.18
2018-12-22T21:38:55.953Z,76.40
2018-12-22T21:41:24.195Z,76.30
2018-12-22T21:43:52.486Z,75.46
2018-12-22T21:46:20.708Z,76.12
2018-12-22T21:48:49.000Z,76.33
2018-12-22T21:51:17.241Z,76.73
2018-12-22T21:53:45.546Z,75.97
2018-12-22T21:56:13.813Z,75.84
2018-12-22T21:58:42.085Z,76.12
2018-12-22T22:01:10.319Z,75.88
2018-12-22T22:03:38.881Z,75.90
2018-12-22T22:06:07.145Z,76.02
2018-12-22T22:08:35.480Z,75.27
2018-12-22T22:11:03.727Z,74.98
2018-12-22T22:13:31.985Z,75.33
2018-12-22T22:16:00.405Z,75.49
2018-12-22T22:18:28.613Z,75.55
2018-12-22T22:20:56.908Z,75.28
2018-12-22T22:23:25.132Z,74.80
2018-12-22T22:25:53.340Z,75.53
2018-12-22T22:28:21.555Z,74.88
2018-12-22T22:30:49.761Z,74.91
2018-12-22T22:33:18.023Z,75.74
2018-12-22T22:35:46.255Z,75.04
2018-12-22T22:38:14.487Z,74.65
2018-12-22T22:40:42.735Z,74.85
2018-12-22T22:43:11.358Z,74.82
2018-12-22T22:45:39.647Z,75.02
2018-12-22T22:48:07.859Z,74.90
2018-12-22T22:50:36.091Z,74.28
2018-12-22T22:53:04.359Z,74.77
2018-12-22T22:55:32.661Z,74.50
2018-12-22T22:58:00.975Z,74.70
2018-12-22T23:03:18.578Z,73.74
2018-12-22T23:05:46.785Z,73.65
2018-12-22T23:08:14.996Z,74.01
2018-12-22T23:10:43.227Z,74.22
2018-12-22T23:13:11.422Z,74.35
2018-12-22T23:15:39.633Z,74.71
2018-12-22T23:18:07.959Z,74.53
2018-12-22T23:20:36.181Z,74.74
2018-12-22T23:23:04.427Z,74.57
2018-12-22T23:25:32.651Z,74.97
2018-12-22T23:28:00.893Z,74.97
2018-12-22T23:30:29.410Z,75.12
2018-12-22T23:32:57.661Z,75.12
2018-12-22T23:35:25.979Z,75.16
2018-12-22T23:37:54.213Z,75.19
2018-12-22T23:40:22.624Z,75.54
2018-12-22T23:42:50.851Z,75.02
2018-12-22T23:45:19.071Z,75.44
2018-12-22T23:47:47.346Z,75.78
2018-12-22T23:50:15.600Z,75.61
2018-12-22T23:52:43.908Z,75.70
2018-12-22T23:55:12.224Z,75.88
2018-12-22T23:57:40.567Z,77.10
